General Aviation Weather

Text Reports

Enter one or more of the following location identifiers separated by a space:

Zip Code, Four-Character ICAO or Three-Character IATA airport codes.

METAR - Aviation Routine Weather Report
KF05 - Vernon, Texas
Updated at 9:16 AM GMT on October 24, 2014 (4:16 AM CDT):
METAR KF05 240916Z AUTO 00000KT 10SM CLR 16/13 A3008 RMK AO2
TAF - Terminal Area Forecast
KF05 - Vernon, Texas
Updated at 9:16 AM GMT on October 24, 2014 (4:16 AM CDT):
No TAF is currently available for this location.
Decoded:
No decoded TAF is available.
PIREP - Pilot Weather Report
KF05 - Vernon, Texas
Updated at 9:16 AM GMT on October 24, 2014 (4:16 AM CDT):
No PIREP is currently available for this location.
AIRMET - Airmens Meteorological Information
KF05 - Vernon, Texas
Updated at 9:16 AM GMT on October 24, 2014 (4:16 AM CDT):
No AIRMET is currently available for this location.
SIGMET - Significant Meteorological Information
KF05 - Vernon, Texas
Updated at 9:16 AM GMT on October 24, 2014 (4:16 AM CDT):
No SIGMET is currently available for this location.
NOTAM - Notice to Airmen
KF05 - Vernon, Texas
Updated at 9:16 AM GMT on October 24, 2014 (4:16 AM CDT):
No NOTAM is currently available for this location.
Forecast Area
KF05 - Vernon, Texas
Updated at 9:16 AM GMT on October 24, 2014 (4:16 AM CDT):
No NOTAM is currently available for this location.
Aviation Weather Maps